createdAt,value
2023-04-24T00:01:23.137Z,3.30
2023-04-24T00:03:50.212Z,2.90
2023-04-24T00:06:18.466Z,2.97
2023-04-24T00:08:45.361Z,3.05
2023-04-24T00:11:12.194Z,3.10
2023-04-24T00:13:39.557Z,3.42
2023-04-24T00:16:06.686Z,3.90
2023-04-24T00:18:33.436Z,4.43
2023-04-24T00:21:00.370Z,4.70
2023-04-24T00:23:27.112Z,4.57
2023-04-24T00:25:53.780Z,4.43
2023-04-24T00:28:20.650Z,5.07
2023-04-24T00:30:47.377Z,6.00
2023-04-24T00:33:14.244Z,6.53
2023-04-24T00:35:41.097Z,6.20
2023-04-24T00:38:08.228Z,6.20
2023-04-24T00:40:35.080Z,6.47
2023-04-24T00:43:01.823Z,6.70
2023-04-24T00:45:28.663Z,6.20
2023-04-24T00:47:55.478Z,6.13
2023-04-24T00:50:22.681Z,6.63
2023-04-24T00:52:49.985Z,6.57
2023-04-24T00:55:16.882Z,7.07
2023-04-24T00:57:45.260Z,6.85
2023-04-24T01:00:13.336Z,7.53
2023-04-24T01:02:45.315Z,6.70
2023-04-24T01:05:14.133Z,7.07
2023-04-24T01:07:45.022Z,7.80
2023-04-24T01:10:13.623Z,7.28
2023-04-24T01:12:40.404Z,7.13
2023-04-24T01:15:07.998Z,7.25
2023-04-24T01:17:36.064Z,7.47
2023-04-24T01:20:06.546Z,7.28
2023-04-24T01:22:35.528Z,7.63
2023-04-24T01:25:02.921Z,7.82
2023-04-24T01:27:30.753Z,8.50
2023-04-24T01:29:57.734Z,7.80
2023-04-24T01:32:25.411Z,8.07
2023-04-24T01:34:52.737Z,8.20
2023-04-24T01:37:19.502Z,7.45
2023-04-24T01:39:46.305Z,8.40
2023-04-24T01:42:14.119Z,7.88
2023-04-24T01:44:41.641Z,7.78
2023-04-24T01:47:08.507Z,8.30
2023-04-24T01:49:35.605Z,9.27
2023-04-24T01:52:02.350Z,7.95
2023-04-24T01:54:31.289Z,7.88
2023-04-24T01:56:58.560Z,7.10
2023-04-24T01:59:28.777Z,7.07
2023-04-24T02:01:55.575Z,7.65
2023-04-24T02:04:22.334Z,7.47
2023-04-24T02:06:49.711Z,6.82
2023-04-24T02:09:16.480Z,7.93
2023-04-24T02:11:43.356Z,7.32
2023-04-24T02:14:10.307Z,7.45
2023-04-24T02:16:40.428Z,6.55
2023-04-24T02:19:07.590Z,6.47
2023-04-24T02:21:34.416Z,5.57
2023-04-24T02:24:01.946Z,5.65
2023-04-24T02:26:28.878Z,5.43
2023-04-24T02:28:56.031Z,4.65
2023-04-24T02:31:22.797Z,4.97
2023-04-24T02:33:50.571Z,4.60
2023-04-24T02:36:17.265Z,5.43
2023-04-24T02:38:43.899Z,5.57
2023-04-24T02:41:12.893Z,6.53
2023-04-24T02:43:39.606Z,6.53
2023-04-24T02:46:06.559Z,7.43
2023-04-24T02:48:33.351Z,7.28
2023-04-24T02:51:00.175Z,7.60
2023-04-24T02:53:27.042Z,6.80
2023-04-24T02:55:53.915Z,5.85
2023-04-24T02:58:20.954Z,5.57
2023-04-24T03:00:48.307Z,5.43
2023-04-24T03:03:16.320Z,6.30
2023-04-24T03:05:43.211Z,5.82
2023-04-24T03:08:09.975Z,5.90
2023-04-24T03:10:36.676Z,6.00
2023-04-24T03:13:03.443Z,6.75
2023-04-24T03:15:30.313Z,7.30
2023-04-24T03:17:57.133Z,8.55
2023-04-24T03:20:24.764Z,9.40
2023-04-24T03:22:52.656Z,8.93
2023-04-24T03:25:19.639Z,9.35
2023-04-24T03:27:47.024Z,11.18
2023-04-24T03:30:26.556Z,10.95
2023-04-24T03:32:58.165Z,9.90
2023-04-24T03:35:28.936Z,10.48
2023-04-24T03:37:56.728Z,10.02
2023-04-24T03:40:42.181Z,11.35
2023-04-24T03:43:25.138Z,10.70
2023-04-24T03:45:52.166Z,9.60
2023-04-24T03:48:19.944Z,10.07
2023-04-24T03:50:46.824Z,9.70
2023-04-24T03:53:13.780Z,7.85
2023-04-24T03:55:42.836Z,7.53
2023-04-24T03:58:10.377Z,7.90
2023-04-24T04:00:38.405Z,7.75
2023-04-24T04:03:34.508Z,7.85
2023-04-24T04:06:01.508Z,7.13
2023-04-24T04:08:28.234Z,7.57
2023-04-24T04:10:55.792Z,8.02
2023-04-24T04:13:24.582Z,7.50
2023-04-24T04:15:51.596Z,7.53
2023-04-24T04:18:18.806Z,7.25
2023-04-24T04:20:45.956Z,7.65
2023-04-24T04:23:18.278Z,6.72
2023-04-24T04:25:58.377Z,7.15
2023-04-24T04:28:33.813Z,6.20
2023-04-24T04:31:01.816Z,6.55
2023-04-24T04:33:28.709Z,5.75
2023-04-24T04:35:57.869Z,6.45
2023-04-24T04:38:30.894Z,6.40
2023-04-24T04:41:05.413Z,6.65
2023-04-24T04:43:35.072Z,5.05
2023-04-24T04:46:04.722Z,5.78
2023-04-24T04:49:02.317Z,6.28
2023-04-24T04:51:29.555Z,6.60
2023-04-24T04:53:56.604Z,6.88
2023-04-24T04:56:23.561Z,6.85
2023-04-24T04:58:50.382Z,7.22
2023-04-24T05:01:18.684Z,7.25
2023-04-24T05:03:47.736Z,6.97
2023-04-24T05:06:16.782Z,6.72
2023-04-24T05:08:44.845Z,6.78
2023-04-24T05:11:21.713Z,7.63
2023-04-24T05:13:48.423Z,7.60
2023-04-24T05:16:23.416Z,8.20
2023-04-24T05:18:53.276Z,8.73
2023-04-24T05:21:25.075Z,8.95
2023-04-24T05:23:52.687Z,8.35
2023-04-24T05:26:32.362Z,8.50
2023-04-24T05:29:01.303Z,8.70
2023-04-24T05:31:28.097Z,7.30
2023-04-24T05:33:55.383Z,7.00
2023-04-24T05:36:22.671Z,8.57
2023-04-24T05:38:49.807Z,8.27
2023-04-24T05:41:16.895Z,8.02
2023-04-24T05:43:43.568Z,10.55
2023-04-24T05:46:10.486Z,7.85
2023-04-24T05:48:37.221Z,7.15
2023-04-24T05:51:04.743Z,6.88
2023-04-24T05:53:32.080Z,6.50
2023-04-24T05:55:59.011Z,6.68
2023-04-24T05:58:25.770Z,7.57
2023-04-24T06:00:52.916Z,7.82
2023-04-24T06:03:20.067Z,7.32
2023-04-24T06:05:50.521Z,8.95
2023-04-24T06:08:17.277Z,10.90
2023-04-24T06:10:46.098Z,12.65
2023-04-24T06:13:13.302Z,13.70
2023-04-24T06:18:18.074Z,14.98
2023-04-24T06:20:45.741Z,16.80
2023-04-24T06:23:12.602Z,15.75
2023-04-24T06:25:39.731Z,16.65
2023-04-24T06:28:06.480Z,16.73
2023-04-24T06:30:33.218Z,17.48
2023-04-24T06:33:09.211Z,19.92
2023-04-24T06:35:46.015Z,18.13
2023-04-24T06:38:12.922Z,18.80
2023-04-24T06:40:40.575Z,16.90
2023-04-24T06:43:07.709Z,18.77
2023-04-24T06:45:34.980Z,17.38
2023-04-24T06:48:01.781Z,18.88
2023-04-24T06:50:28.802Z,17.73
2023-04-24T06:52:55.509Z,17.50
2023-04-24T06:55:22.564Z,18.58
2023-04-24T06:57:49.633Z,18.48
2023-04-24T07:00:16.633Z,17.33
2023-04-24T07:02:43.519Z,16.85
2023-04-24T07:05:10.424Z,16.58
2023-04-24T07:07:38.842Z,17.02
2023-04-24T07:10:06.769Z,15.88
2023-04-24T07:12:33.940Z,17.50
2023-04-24T07:15:02.028Z,16.17
2023-04-24T07:17:28.791Z,15.68
2023-04-24T07:19:55.549Z,16.05
2023-04-24T07:22:22.615Z,17.15
2023-04-24T07:24:49.468Z,15.73
2023-04-24T07:27:16.407Z,14.10
2023-04-24T07:29:43.610Z,16.13
2023-04-24T07:32:10.678Z,15.27
2023-04-24T07:34:37.700Z,15.10
2023-04-24T07:37:04.749Z,13.82
2023-04-24T07:39:31.747Z,13.35
2023-04-24T07:42:02.803Z,14.27
2023-04-24T07:44:29.602Z,10.50
2023-04-24T07:46:57.611Z,10.05
2023-04-24T07:49:24.881Z,8.68
2023-04-24T07:51:51.665Z,7.88
2023-04-24T07:54:18.412Z,8.23
2023-04-24T07:56:45.750Z,8.38
2023-04-24T07:59:12.612Z,8.45
2023-04-24T08:01:39.450Z,8.50
2023-04-24T08:04:07.249Z,6.47
2023-04-24T08:06:34.470Z,6.20
2023-04-24T08:09:01.598Z,6.15
2023-04-24T08:11:28.756Z,7.22
2023-04-24T08:13:56.257Z,7.18
2023-04-24T08:16:24.980Z,7.03
2023-04-24T08:18:52.833Z,6.90
2023-04-24T08:21:19.911Z,6.30
2023-04-24T08:23:46.834Z,7.05
2023-04-24T08:26:14.194Z,6.47
2023-04-24T08:28:41.276Z,6.00
2023-04-24T08:31:11.030Z,5.65
2023-04-24T08:33:37.865Z,5.15
2023-04-24T08:36:06.588Z,5.00
2023-04-24T08:38:34.793Z,4.18
2023-04-24T08:41:03.050Z,4.15
2023-04-24T08:43:30.060Z,4.68
2023-04-24T08:45:58.239Z,4.53
2023-04-24T08:48:31.392Z,4.65
2023-04-24T08:50:59.572Z,4.90
2023-04-24T08:53:28.203Z,4.05
2023-04-24T08:55:56.930Z,4.80
2023-04-24T08:58:27.294Z,5.95
2023-04-24T09:00:57.363Z,4.10
2023-04-24T09:03:25.021Z,4.72
2023-04-24T09:05:55.403Z,4.28
2023-04-24T09:08:26.076Z,4.00
2023-04-24T09:10:53.163Z,4.40
2023-04-24T09:13:21.369Z,4.05
2023-04-24T09:15:48.735Z,3.75
2023-04-24T09:18:15.548Z,3.60
2023-04-24T09:21:04.468Z,11.18
2023-04-24T09:23:32.706Z,6.88
2023-04-24T09:26:01.319Z,12.82
2023-04-24T09:28:38.710Z,5.00
2023-04-24T09:31:19.216Z,5.55
2023-04-24T09:34:00.432Z,6.50
2023-04-24T09:36:37.915Z,7.37
2023-04-24T09:39:09.005Z,8.82
2023-04-24T09:41:35.765Z,8.52
2023-04-24T09:44:23.745Z,9.30
2023-04-24T09:46:56.414Z,10.38
2023-04-24T09:51:52.233Z,12.70
2023-04-24T09:54:21.891Z,16.50
2023-04-24T09:56:51.837Z,15.45
2023-04-24T09:59:20.486Z,17.83
2023-04-24T10:01:49.810Z,16.70
2023-04-24T10:04:28.310Z,17.20
2023-04-24T10:06:57.645Z,17.63
2023-04-24T10:09:26.849Z,14.65
2023-04-24T10:11:55.659Z,15.63
2023-04-24T10:14:25.700Z,16.33
2023-04-24T10:16:55.222Z,17.40
2023-04-24T10:19:21.993Z,15.43
2023-04-24T10:21:48.987Z,16.33
2023-04-24T10:24:17.373Z,15.65
2023-04-24T10:26:45.243Z,14.38
2023-04-24T10:29:13.878Z,13.32
2023-04-24T10:31:41.177Z,13.13
2023-04-24T10:34:09.952Z,12.48
2023-04-24T10:36:42.428Z,10.85
2023-04-24T10:39:15.769Z,11.80
2023-04-24T10:41:42.877Z,11.20
2023-04-24T10:44:14.151Z,11.60
2023-04-24T10:46:45.064Z,11.23
2023-04-24T10:49:12.228Z,10.23
2023-04-24T10:51:50.501Z,11.32
2023-04-24T10:54:24.855Z,11.48
2023-04-24T10:59:45.103Z,10.75
2023-04-24T11:02:12.058Z,9.90
2023-04-24T11:04:38.997Z,10.30
2023-04-24T11:07:06.248Z,7.93
2023-04-24T11:09:33.905Z,7.45
2023-04-24T11:12:14.923Z,4.40
2023-04-24T11:14:57.534Z,6.65
2023-04-24T11:20:22.884Z,9.43
2023-04-24T11:22:59.016Z,4.47
2023-04-24T11:28:05.980Z,4.70
2023-04-24T11:30:34.650Z,4.03
2023-04-24T11:33:08.704Z,4.05
2023-04-24T11:35:41.613Z,4.00
2023-04-24T11:38:23.322Z,3.80
2023-04-24T11:40:51.466Z,4.03
2023-04-24T11:43:20.331Z,3.55
2023-04-24T11:45:51.043Z,3.40
2023-04-24T11:48:23.655Z,3.47
2023-04-24T11:50:52.677Z,3.97
2023-04-24T11:53:22.822Z,4.10
2023-04-24T11:55:49.633Z,4.00
2023-04-24T11:58:21.276Z,3.95
2023-04-24T12:00:58.109Z,4.65
2023-04-24T12:03:25.195Z,3.33
2023-04-24T12:05:52.228Z,4.15
2023-04-24T12:08:29.656Z,3.05
2023-04-24T12:10:56.430Z,3.20
2023-04-24T12:13:23.333Z,3.10
2023-04-24T12:15:51.733Z,2.90
2023-04-24T12:18:18.777Z,2.90
2023-04-24T12:20:48.333Z,2.90
2023-04-24T12:23:15.160Z,2.80
2023-04-24T12:25:42.056Z,1.92
2023-04-24T12:28:13.529Z,2.05
2023-04-24T12:30:49.986Z,2.35
2023-04-24T12:33:21.202Z,2.30
2023-04-24T12:35:49.866Z,2.58
2023-04-24T12:38:17.356Z,2.58
2023-04-24T12:40:45.033Z,2.95
2023-04-24T12:43:21.510Z,2.85
2023-04-24T12:45:49.305Z,2.88
2023-04-24T12:48:16.401Z,2.30
2023-04-24T12:50:46.010Z,2.58
2023-04-24T12:53:17.110Z,2.13
2023-04-24T12:55:45.442Z,2.65
2023-04-24T12:58:12.301Z,2.40
2023-04-24T13:00:40.057Z,1.98
2023-04-24T13:03:07.099Z,1.58
2023-04-24T13:05:33.877Z,1.55
2023-04-24T13:08:00.813Z,1.48
2023-04-24T13:10:27.516Z,1.13
2023-04-24T13:12:54.293Z,1.50
2023-04-24T13:15:21.211Z,1.40
2023-04-24T13:17:48.146Z,1.25
2023-04-24T13:20:14.918Z,1.50
2023-04-24T13:22:41.932Z,1.08
2023-04-24T13:25:08.833Z,1.15
2023-04-24T13:27:35.580Z,1.70
2023-04-24T13:30:02.417Z,1.13
2023-04-24T13:32:30.016Z,1.50
2023-04-24T13:34:57.728Z,1.70
2023-04-24T13:37:24.544Z,1.58
2023-04-24T13:39:52.332Z,1.80
2023-04-24T13:42:19.801Z,1.80
2023-04-24T13:44:46.521Z,1.73
2023-04-24T13:47:13.348Z,1.35
2023-04-24T13:49:40.122Z,1.73
2023-04-24T13:52:06.877Z,1.67
2023-04-24T13:54:33.797Z,1.50
2023-04-24T13:57:01.418Z,1.63
2023-04-24T13:59:28.213Z,1.70
2023-04-24T14:01:55.766Z,1.50
2023-04-24T14:04:22.839Z,2.13
2023-04-24T14:06:49.995Z,1.98
2023-04-24T14:09:16.884Z,1.52
2023-04-24T14:11:43.724Z,2.72
2023-04-24T14:14:10.475Z,1.30
2023-04-24T14:16:37.418Z,2.42
2023-04-24T14:19:04.179Z,1.48
2023-04-24T14:21:31.902Z,1.55
2023-04-24T14:23:58.648Z,2.03
2023-04-24T14:26:25.930Z,1.17
2023-04-24T14:28:57.979Z,1.55
2023-04-24T14:31:30.665Z,1.55
2023-04-24T14:33:58.422Z,1.50
2023-04-24T14:36:25.303Z,1.40
2023-04-24T14:38:52.147Z,1.98
2023-04-24T14:41:18.801Z,1.70
2023-04-24T14:43:45.894Z,1.52
2023-04-24T14:46:12.875Z,1.80
2023-04-24T14:48:39.661Z,2.17
2023-04-24T14:51:06.491Z,1.73
2023-04-24T14:53:33.198Z,2.13
2023-04-24T14:56:00.081Z,1.85
2023-04-24T14:58:26.822Z,2.65
2023-04-24T15:00:55.414Z,1.85
2023-04-24T15:03:23.003Z,2.10
2023-04-24T15:05:50.202Z,1.50
2023-04-24T15:08:17.046Z,1.90
2023-04-24T15:10:44.129Z,2.13
2023-04-24T15:13:11.669Z,2.17
2023-04-24T15:15:38.433Z,2.30
2023-04-24T15:18:06.626Z,2.42
2023-04-24T15:20:33.427Z,2.95
2023-04-24T15:23:01.429Z,2.60
2023-04-24T15:25:28.361Z,2.90
2023-04-24T15:27:58.644Z,3.10
2023-04-24T15:30:25.763Z,2.92
2023-04-24T15:32:52.699Z,2.70
2023-04-24T15:35:19.955Z,3.22
2023-04-24T15:37:46.870Z,2.70
2023-04-24T15:40:16.396Z,3.67
2023-04-24T15:42:43.936Z,3.28
2023-04-24T15:45:11.488Z,3.30
2023-04-24T15:47:38.650Z,3.05
2023-04-24T15:50:06.276Z,3.05
2023-04-24T15:52:33.024Z,3.35
2023-04-24T15:54:59.759Z,2.72
2023-04-24T15:57:26.553Z,3.60
2023-04-24T15:59:56.141Z,2.72
2023-04-24T16:02:23.386Z,3.55
2023-04-24T16:04:51.307Z,3.70
2023-04-24T16:07:18.296Z,3.20
2023-04-24T16:09:45.552Z,2.97
2023-04-24T16:12:12.832Z,3.33
2023-04-24T16:14:42.498Z,3.30
2023-04-24T16:17:09.577Z,3.42
2023-04-24T16:19:36.323Z,2.78
2023-04-24T16:22:03.851Z,2.97
2023-04-24T16:24:31.021Z,2.63
2023-04-24T16:26:57.852Z,2.92
2023-04-24T16:29:24.593Z,2.53
2023-04-24T16:31:51.308Z,2.55
2023-04-24T16:34:18.096Z,2.70
2023-04-24T16:36:45.293Z,3.08
2023-04-24T16:39:13.688Z,2.42
2023-04-24T16:41:40.779Z,2.70
2023-04-24T16:44:07.654Z,2.60
2023-04-24T16:46:34.552Z,3.40
2023-04-24T16:49:01.413Z,3.85
2023-04-24T16:51:28.993Z,3.33
2023-04-24T16:53:55.936Z,3.80
2023-04-24T16:56:22.890Z,2.85
2023-04-24T16:58:50.476Z,3.67
2023-04-24T17:01:17.565Z,3.20
2023-04-24T17:03:45.041Z,3.33
2023-04-24T17:06:12.636Z,3.50
2023-04-24T17:08:39.486Z,3.50
2023-04-24T17:11:06.256Z,3.70
2023-04-24T17:13:33.053Z,3.88
2023-04-24T17:15:59.985Z,4.10
2023-04-24T17:18:27.215Z,4.22
2023-04-24T17:20:54.385Z,4.25
2023-04-24T17:23:21.213Z,2.60
2023-04-24T17:25:48.505Z,4.03
2023-04-24T17:28:26.796Z,2.90
2023-04-24T17:30:55.565Z,2.80
2023-04-24T17:33:22.290Z,3.33
2023-04-24T17:35:50.181Z,2.97
2023-04-24T17:38:17.688Z,2.88
2023-04-24T17:40:45.947Z,2.75
2023-04-24T17:43:18.033Z,2.70
2023-04-24T17:45:49.618Z,2.80
2023-04-24T17:48:18.151Z,2.88
2023-04-24T17:50:45.923Z,3.10
2023-04-24T17:53:13.334Z,3.10
2023-04-24T17:55:43.330Z,2.90
2023-04-24T17:58:10.704Z,3.28
2023-04-24T18:00:37.859Z,3.10
2023-04-24T18:03:07.120Z,2.60
2023-04-24T18:05:36.011Z,2.63
2023-04-24T18:08:03.365Z,2.92
2023-04-24T18:10:31.659Z,2.45
2023-04-24T18:12:58.928Z,3.08
2023-04-24T18:15:25.923Z,3.38
2023-04-24T18:17:52.744Z,3.28
2023-04-24T18:20:20.752Z,3.40
2023-04-24T18:22:47.843Z,3.65
2023-04-24T18:25:15.019Z,3.38
2023-04-24T18:27:42.326Z,3.70
2023-04-24T18:30:14.177Z,3.45
2023-04-24T18:32:41.803Z,3.15
2023-04-24T18:35:09.240Z,3.35
2023-04-24T18:37:35.974Z,3.58
2023-04-24T18:40:03.583Z,3.50
2023-04-24T18:42:30.365Z,3.53
2023-04-24T18:45:01.242Z,2.92
2023-04-24T18:47:28.764Z,3.83
2023-04-24T18:49:55.515Z,3.03
2023-04-24T18:52:24.858Z,4.45
2023-04-24T18:54:51.898Z,3.28
2023-04-24T18:57:18.637Z,3.50
2023-04-24T18:59:45.705Z,3.13
2023-04-24T19:02:12.812Z,2.97
2023-04-24T19:04:39.863Z,3.25
2023-04-24T19:07:07.308Z,3.30
2023-04-24T19:09:34.424Z,3.63
2023-04-24T19:12:01.954Z,3.42
2023-04-24T19:14:29.044Z,3.05
2023-04-24T19:16:55.798Z,3.40
2023-04-24T19:19:23.752Z,3.05
2023-04-24T19:21:50.793Z,3.25
2023-04-24T19:24:19.169Z,3.60
2023-04-24T19:26:46.305Z,3.03
2023-04-24T19:29:13.637Z,2.78
2023-04-24T19:31:40.538Z,2.95
2023-04-24T19:34:07.357Z,3.08
2023-04-24T19:36:34.145Z,2.72
2023-04-24T19:39:01.211Z,2.63
2023-04-24T19:41:27.952Z,2.83
2023-04-24T19:43:54.660Z,2.95
2023-04-24T19:46:21.543Z,2.55
2023-04-24T19:48:48.645Z,2.90
2023-04-24T19:51:15.636Z,2.90
2023-04-24T19:53:43.451Z,2.83
2023-04-24T19:56:10.501Z,2.20
2023-04-24T19:58:37.263Z,3.08
2023-04-24T20:01:05.828Z,2.58
2023-04-24T20:03:34.403Z,3.08
2023-04-24T20:06:01.878Z,2.58
2023-04-24T20:08:28.618Z,3.05
2023-04-24T20:10:57.759Z,3.35
2023-04-24T20:13:27.523Z,4.15
2023-04-24T20:15:54.404Z,3.15
2023-04-24T20:18:21.542Z,3.33
2023-04-24T20:20:48.342Z,3.30
2023-04-24T20:23:15.676Z,3.40
2023-04-24T20:25:42.329Z,3.90
2023-04-24T20:28:09.002Z,2.88
2023-04-24T20:30:36.102Z,3.72
2023-04-24T20:33:03.420Z,3.72
2023-04-24T20:35:30.362Z,3.22
2023-04-24T20:37:57.337Z,3.60
2023-04-24T20:40:24.051Z,3.83
2023-04-24T20:42:51.237Z,2.95
2023-04-24T20:45:18.119Z,3.47
2023-04-24T20:47:45.096Z,3.40
2023-04-24T20:50:12.189Z,3.13
2023-04-24T20:52:39.158Z,3.13
2023-04-24T20:55:06.738Z,3.50
2023-04-24T20:57:33.763Z,3.53
2023-04-24T21:00:01.350Z,4.13
2023-04-24T21:02:28.280Z,3.13
2023-04-24T21:04:55.406Z,3.45
2023-04-24T21:07:22.136Z,3.30
2023-04-24T21:09:48.900Z,3.05
2023-04-24T21:12:15.617Z,3.33
2023-04-24T21:14:42.352Z,3.90
2023-04-24T21:17:09.126Z,3.30
2023-04-24T21:19:35.848Z,4.10
2023-04-24T21:22:02.606Z,3.25
2023-04-24T21:24:29.428Z,3.00
2023-04-24T21:26:56.164Z,3.70
2023-04-24T21:29:22.961Z,3.35
2023-04-24T21:31:49.736Z,3.45
2023-04-24T21:34:16.518Z,3.63
2023-04-24T21:36:43.192Z,3.50
2023-04-24T21:39:11.889Z,3.80
2023-04-24T21:41:38.664Z,4.10
2023-04-24T21:44:05.931Z,3.45
2023-04-24T21:46:32.748Z,4.43
2023-04-24T21:48:59.436Z,3.67
2023-04-24T21:51:26.909Z,4.43
2023-04-24T21:53:53.656Z,3.95
2023-04-24T21:56:20.436Z,4.60
2023-04-24T21:58:47.460Z,4.03
2023-04-24T22:01:15.504Z,4.60
2023-04-24T22:03:42.384Z,5.65
2023-04-24T22:06:12.246Z,4.68
2023-04-24T22:08:39.053Z,4.78
2023-04-24T22:11:09.096Z,3.53
2023-04-24T22:13:43.400Z,4.03
2023-04-24T22:16:10.202Z,3.55
2023-04-24T22:18:46.533Z,3.72
2023-04-24T22:21:14.147Z,4.13
2023-04-24T22:23:41.092Z,4.13
2023-04-24T22:26:07.933Z,4.00
2023-04-24T22:28:34.662Z,5.30
2023-04-24T22:31:01.396Z,5.03
2023-04-24T22:33:28.132Z,4.63
2023-04-24T22:35:55.236Z,5.35
2023-04-24T22:38:21.924Z,5.03
2023-04-24T22:40:48.880Z,5.00
2023-04-24T22:43:17.360Z,6.10
2023-04-24T22:45:44.048Z,5.50
2023-04-24T22:48:10.883Z,4.45
2023-04-24T22:50:38.026Z,5.40
2023-04-24T22:53:04.785Z,5.55
2023-04-24T22:55:31.534Z,4.88
2023-04-24T22:57:58.345Z,5.57
2023-04-24T23:00:25.155Z,5.03
2023-04-24T23:02:51.920Z,5.25
2023-04-24T23:05:21.377Z,5.70
2023-04-24T23:07:48.397Z,5.60
2023-04-24T23:10:15.124Z,6.05
2023-04-24T23:12:41.966Z,6.60
2023-04-24T23:15:10.335Z,6.18
2023-04-24T23:17:37.081Z,5.60
2023-04-24T23:20:04.730Z,5.75
2023-04-24T23:22:31.649Z,5.60
2023-04-24T23:24:58.379Z,6.75
2023-04-24T23:27:25.082Z,5.65
2023-04-24T23:29:51.974Z,6.88
2023-04-24T23:32:18.879Z,5.25
2023-04-24T23:34:45.717Z,4.95
2023-04-24T23:37:12.525Z,5.45
2023-04-24T23:39:39.259Z,5.60
2023-04-24T23:42:07.825Z,6.18
2023-04-24T23:44:35.104Z,5.55
2023-04-24T23:47:01.938Z,5.80
2023-04-24T23:49:28.726Z,5.85
2023-04-24T23:51:56.206Z,5.25
2023-04-24T23:54:22.847Z,5.38
2023-04-24T23:56:49.969Z,6.22
2023-04-24T23:59:16.680Z,5.40
